Time;durP1;ratioP1;P1;durP2;ratioP2;P2;SDS_P1;SDS_P2;PMS_P1;PMS_P2;Temp;Humidity;BMP_temperature;BMP_pressure;BME280_temperature;BME280_humidity;BME280_pressure;Samples;Min_cycle;Max_cycle;Signal;HPM_P1;HPM_P2
2023/07/21 00:00:19;;;;;;;0.88;0.88;;;;;;;19.90;55.88;100648.44;5206090;28;20041;-85
2023/07/21 00:03:10;;;;;;;0.55;0.50;;;;;;;19.89;55.82;100647.59;5186765;28;20070;-84
2023/07/21 00:06:06;;;;;;;1.85;1.70;;;;;;;19.94;55.82;100650.81;5205319;28;20116;-84
2023/07/21 00:08:57;;;;;;;0.85;0.85;;;;;;;19.92;56.10;100646.53;5210602;28;20047;-85
2023/07/21 00:11:48;;;;;;;1.15;0.80;;;;;;;19.82;55.75;100641.81;5192812;28;20029;-85
2023/07/21 00:14:39;;;;;;;0.73;0.70;;;;;;;19.73;56.15;100636.25;5219182;28;20048;-84
2023/07/21 00:17:30;;;;;;;1.25;1.15;;;;;;;19.70;56.94;100641.78;5205764;28;20032;-85
2023/07/21 00:20:21;;;;;;;1.35;1.25;;;;;;;19.68;56.47;100639.22;5194537;28;20037;-84
2023/07/21 00:23:12;;;;;;;1.38;0.80;;;;;;;19.76;56.25;100641.34;5189676;28;20116;-86
2023/07/21 00:26:04;;;;;;;0.40;0.40;;;;;;;19.70;56.33;100632.00;5203600;28;20094;-84
2023/07/21 00:28:54;;;;;;;0.70;0.60;;;;;;;19.70;56.64;100632.00;5222377;28;20028;-85
2023/07/21 00:31:49;;;;;;;0.50;0.50;;;;;;;19.64;56.09;100627.06;5198088;28;20472;-85
2023/07/21 00:34:39;;;;;;;1.80;0.65;;;;;;;19.57;57.81;100626.63;5183695;28;20025;-85
2023/07/21 00:37:30;;;;;;;0.57;0.57;;;;;;;19.62;56.91;100631.66;5211353;28;20029;-83
2023/07/21 00:40:23;;;;;;;0.50;0.50;;;;;;;19.57;57.25;100628.44;5192806;28;20041;-85
2023/07/21 00:43:15;;;;;;;0.70;0.70;;;;;;;19.61;57.06;100624.63;5205224;28;20032;-85
2023/07/21 00:46:07;;;;;;;2.67;0.93;;;;;;;19.56;56.78;100627.59;5195803;28;20085;-85
2023/07/21 00:48:59;;;;;;;2.10;1.37;;;;;;;19.47;57.97;100623.72;5191931;28;20132;-84
2023/07/21 00:51:50;;;;;;;0.60;0.60;;;;;;;19.43;58.34;100624.88;5191940;28;20029;-85
2023/07/21 00:54:41;;;;;;;1.23;1.13;;;;;;;19.39;57.31;100623.38;5191494;28;20040;-85
2023/07/21 00:57:33;;;;;;;0.80;0.80;;;;;;;19.38;57.15;100621.66;5207743;28;20113;-84
2023/07/21 01:00:24;;;;;;;1.15;1.13;;;;;;;19.34;57.49;100617.50;5219964;28;20055;-84
2023/07/21 01:03:17;;;;;;;0.50;0.50;;;;;;;19.27;57.88;100613.53;5220087;28;20064;-85
2023/07/21 01:06:10;;;;;;;0.50;0.50;;;;;;;19.34;57.15;100609.53;5217891;28;20041;-84
2023/07/21 01:09:04;;;;;;;1.25;0.85;;;;;;;19.26;57.47;100611.84;5216015;28;20071;-84
2023/07/21 01:11:55;;;;;;;0.57;0.57;;;;;;;19.33;57.19;100614.00;5210526;28;20029;-85
2023/07/21 01:14:46;;;;;;;1.02;1.02;;;;;;;19.37;57.49;100608.47;5225028;28;20033;-84
2023/07/21 01:17:38;;;;;;;0.60;0.60;;;;;;;19.29;57.57;100601.00;5197395;28;20025;-85
2023/07/21 01:20:29;;;;;;;0.60;0.60;;;;;;;19.29;58.01;100595.69;5212366;28;20119;-85
2023/07/21 01:23:38;;;;;;;4.28;1.55;;;;;;;19.36;58.08;100596.97;5210715;28;20064;-84
2023/07/21 01:26:30;;;;;;;9.50;1.38;;;;;;;19.28;57.45;100589.50;5211801;28;20029;-84
2023/07/21 01:29:23;;;;;;;2.30;1.40;;;;;;;19.21;57.45;100587.34;5205930;28;20375;-84
2023/07/21 01:32:19;;;;;;;0.70;0.70;;;;;;;19.11;57.94;100579.97;5211708;28;20025;-86
2023/07/21 01:35:12;;;;;;;0.98;0.98;;;;;;;19.06;57.95;100579.41;5194251;28;20543;-84
2023/07/21 01:38:05;;;;;;;0.88;0.88;;;;;;;19.03;58.13;100585.78;5192900;28;20123;-84
2023/07/21 01:40:56;;;;;;;1.13;1.13;;;;;;;19.04;58.03;100581.34;5210885;28;20026;-84
2023/07/21 01:43:48;;;;;;;10.15;2.92;;;;;;;18.87;60.81;100579.72;5209953;28;20104;-85
2023/07/21 01:46:39;;;;;;;3.42;0.93;;;;;;;19.04;58.25;100584.00;5217529;28;20060;-86
2023/07/21 01:49:30;;;;;;;0.65;0.65;;;;;;;19.09;58.95;100578.38;5213017;28;20059;-85
2023/07/21 01:52:22;;;;;;;0.68;0.68;;;;;;;19.07;58.60;100573.13;5195678;28;20055;-84
2023/07/21 01:55:26;;;;;;;1.73;1.38;;;;;;;19.07;58.30;100574.97;5199484;28;20120;-85
2023/07/21 01:58:19;;;;;;;4.47;1.88;;;;;;;19.00;58.30;100577.16;5203794;28;20033;-85
2023/07/21 02:01:11;;;;;;;0.70;0.70;;;;;;;18.96;60.85;100586.28;5206744;28;20037;-85
2023/07/21 02:04:03;;;;;;;9.65;1.85;;;;;;;18.95;59.94;100584.59;5224246;28;20101;-85
2023/07/21 02:06:54;;;;;;;1.13;1.02;;;;;;;18.87;59.96;100567.28;5195467;28;20021;-85
2023/07/21 02:09:44;;;;;;;0.85;0.85;;;;;;;18.83;59.87;100552.47;5195041;28;20111;-85
2023/07/21 02:12:35;;;;;;;0.70;0.70;;;;;;;18.71;60.68;100532.88;5210340;28;20027;-84
2023/07/21 02:15:26;;;;;;;1.10;1.02;;;;;;;18.74;59.32;100537.13;5210922;28;20459;-84
2023/07/21 02:18:17;;;;;;;4.10;1.13;;;;;;;18.76;59.48;100545.88;5222690;28;20750;-85
2023/07/21 02:21:08;;;;;;;3.05;2.00;;;;;;;18.76;59.58;100563.63;5223812;28;20052;-85
2023/07/21 02:23:59;;;;;;;0.60;0.60;;;;;;;18.74;60.09;100570.84;5198738;28;20037;-84
2023/07/21 02:26:50;;;;;;;0.70;0.70;;;;;;;18.67;60.60;100562.38;5200756;28;20024;-84
2023/07/21 02:29:46;;;;;;;1.75;0.88;;;;;;;18.68;60.42;100559.63;5218436;28;20036;-84
2023/07/21 02:32:37;;;;;;;1.50;1.40;;;;;;;18.70;59.59;100567.53;5222260;28;20054;-85
2023/07/21 02:35:28;;;;;;;0.47;0.47;;;;;;;18.64;59.97;100574.06;5207123;28;20029;-85
2023/07/21 02:38:18;;;;;;;0.60;0.60;;;;;;;18.65;59.74;100558.97;5221817;28;20136;-85
2023/07/21 02:41:09;;;;;;;0.47;0.47;;;;;;;18.71;59.86;100558.59;5214207;28;20047;-85
2023/07/21 02:44:00;;;;;;;1.02;1.02;;;;;;;18.66;59.67;100555.38;5234871;28;20071;-85
2023/07/21 02:46:51;;;;;;;1.27;0.85;;;;;;;18.69;59.47;100549.88;5198222;28;20055;-84
2023/07/21 02:49:44;;;;;;;2.13;1.40;;;;;;;18.66;59.57;100553.56;5215359;28;20039;-84
2023/07/21 02:52:35;;;;;;;0.68;0.68;;;;;;;18.67;60.11;100547.31;5199065;28;20060;-85
2023/07/21 02:55:27;;;;;;;1.10;1.00;;;;;;;18.71;59.62;100547.97;5215250;28;20484;-84
2023/07/21 02:58:18;;;;;;;9.60;1.02;;;;;;;18.62;59.67;100544.09;5216866;28;20032;-84
2023/07/21 03:01:09;;;;;;;0.60;0.60;;;;;;;18.56;60.09;100536.50;5199409;28;20044;-83
2023/07/21 03:04:00;;;;;;;1.48;1.27;;;;;;;18.55;59.95;100532.97;5195259;28;20036;-85
2023/07/21 03:06:52;;;;;;;0.50;0.50;;;;;;;18.61;59.36;100530.91;5199792;28;20021;-84
2023/07/21 03:09:42;;;;;;;1.98;1.67;;;;;;;18.62;59.66;100527.31;5226622;28;20053;-85
2023/07/21 03:12:33;;;;;;;4.05;1.63;;;;;;;18.59;59.85;100516.84;5208148;28;20024;-84
2023/07/21 03:15:25;;;;;;;1.10;1.10;;;;;;;18.54;60.48;100523.34;5195780;28;20029;-85
2023/07/21 03:18:15;;;;;;;28.70;3.70;;;;;;;18.49;61.72;100530.72;5209232;28;20044;-85
2023/07/21 03:21:06;;;;;;;2.20;1.10;;;;;;;18.52;60.76;100533.19;5212034;28;20076;-85
2023/07/21 03:23:57;;;;;;;0.40;0.40;;;;;;;18.55;60.20;100538.28;5192757;28;20041;-84
2023/07/21 03:26:50;;;;;;;5.35;1.38;;;;;;;18.55;60.24;100543.59;5201623;28;20028;-84
2023/07/21 03:29:42;;;;;;;0.85;0.85;;;;;;;18.42;60.73;100542.69;5208390;28;20780;-85
2023/07/21 03:32:34;;;;;;;1.23;1.13;;;;;;;18.38;60.82;100539.38;5214428;28;20051;-85
2023/07/21 03:35:25;;;;;;;0.68;0.68;;;;;;;18.38;60.48;100546.50;5194235;28;20029;-84
2023/07/21 03:38:16;;;;;;;0.63;0.63;;;;;;;18.48;61.81;100542.28;5197747;28;20611;-84
2023/07/21 03:41:08;;;;;;;1.63;1.33;;;;;;;18.44;60.54;100548.78;5196995;28;20037;-84
2023/07/21 03:44:00;;;;;;;0.70;0.70;;;;;;;18.35;60.88;100546.69;5208369;28;20045;-85
2023/07/21 03:46:50;;;;;;;2.60;1.73;;;;;;;18.41;60.44;100538.31;5209979;28;20116;-85
2023/07/21 03:49:41;;;;;;;3.13;1.17;;;;;;;18.44;60.62;100546.13;5206077;28;20037;-84
2023/07/21 03:52:32;;;;;;;2.95;0.95;;;;;;;18.38;60.33;100541.19;5192812;28;20029;-85
2023/07/21 03:55:23;;;;;;;8.18;0.88;;;;;;;18.42;60.58;100547.16;5193144;28;20033;-84
2023/07/21 03:58:15;;;;;;;1.05;0.95;;;;;;;18.43;60.38;100544.41;5195375;28;20043;-84
2023/07/21 04:01:06;;;;;;;0.50;0.50;;;;;;;18.42;60.48;100536.53;5212965;28;20044;-85
2023/07/21 04:03:56;;;;;;;0.82;0.82;;;;;;;18.42;60.43;100528.56;5192665;28;20033;-85
2023/07/21 04:06:47;;;;;;;0.50;0.50;;;;;;;18.40;60.38;100533.97;5212751;28;20025;-84
2023/07/21 04:09:38;;;;;;;1.35;1.25;;;;;;;18.39;60.55;100534.91;5226993;28;20033;-85
2023/07/21 04:12:29;;;;;;;1.35;1.25;;;;;;;18.29;60.54;100526.66;5196731;28;20033;-84
2023/07/21 04:15:20;;;;;;;1.05;1.00;;;;;;;18.24;60.87;100528.78;5210294;28;20036;-84
2023/07/21 04:18:10;;;;;;;0.77;0.77;;;;;;;18.25;60.98;100526.00;5205788;28;20021;-84
2023/07/21 04:21:01;;;;;;;0.50;0.50;;;;;;;18.22;60.48;100520.88;5207734;28;20136;-83
2023/07/21 04:23:52;;;;;;;1.35;1.27;;;;;;;18.28;60.69;100519.66;5203799;28;20025;-84
2023/07/21 04:26:43;;;;;;;2.33;1.20;;;;;;;18.21;60.85;100524.50;5223934;28;20083;-84
2023/07/21 04:29:34;;;;;;;1.40;1.30;;;;;;;18.27;60.33;100525.06;5209645;28;20056;-84
2023/07/21 04:32:25;;;;;;;5.55;1.52;;;;;;;18.20;60.97;100521.94;5225324;28;20480;-84
2023/07/21 04:35:16;;;;;;;2.38;1.13;;;;;;;18.15;60.93;100527.53;5207722;28;20508;-84
2023/07/21 04:38:07;;;;;;;1.20;1.10;;;;;;;18.14;61.44;100525.81;5189579;28;20120;-84
2023/07/21 04:40:58;;;;;;;1.17;1.13;;;;;;;18.13;61.47;100534.75;5204021;28;20667;-84
2023/07/21 04:43:49;;;;;;;2.83;1.58;;;;;;;18.20;61.08;100538.72;5202002;28;20056;-84
2023/07/21 04:46:40;;;;;;;1.30;1.20;;;;;;;18.14;61.16;100538.25;5202791;28;20029;-84
2023/07/21 04:49:32;;;;;;;0.90;0.90;;;;;;;18.19;61.06;100537.03;5204238;28;20067;-85
2023/07/21 04:52:22;;;;;;;0.98;0.88;;;;;;;18.22;60.87;100533.31;5218768;28;20107;-84
2023/07/21 04:55:14;;;;;;;2.78;1.33;;;;;;;18.23;60.88;100532.38;5214532;28;20087;-84
2023/07/21 04:58:05;;;;;;;1.00;0.90;;;;;;;18.24;61.37;100532.28;5186091;28;20036;-84
2023/07/21 05:00:56;;;;;;;1.00;0.90;;;;;;;18.24;60.84;100534.94;5202270;28;20032;-84
2023/07/21 05:03:47;;;;;;;1.38;1.27;;;;;;;18.25;61.50;100533.13;5195059;28;20017;-85
2023/07/21 05:06:38;;;;;;;1.30;0.95;;;;;;;18.19;61.22;100536.16;5206301;28;20025;-84
2023/07/21 05:09:29;;;;;;;8.25;3.50;;;;;;;18.15;61.57;100540.81;5204102;28;20079;-84
2023/07/21 05:12:20;;;;;;;1.42;1.20;;;;;;;18.12;61.92;100535.69;5218207;28;20107;-84
2023/07/21 05:15:13;;;;;;;10.85;0.93;;;;;;;18.12;62.10;100535.69;5192534;28;20059;-84
2023/07/21 05:18:04;;;;;;;;;;;;;;;18.10;63.66;100542.91;5188982;28;20575;-84
2023/07/21 05:20:55;;;;;;;0.50;0.50;;;;;;;18.09;62.92;100538.53;5204402;28;19920;-84
2023/07/21 05:23:46;;;;;;;0.68;0.68;;;;;;;18.21;61.92;100539.56;5196417;28;20408;-84
2023/07/21 05:26:37;;;;;;;1.15;1.05;;;;;;;18.19;62.11;100542.34;5214835;28;20397;-84
2023/07/21 05:29:28;;;;;;;1.95;1.35;;;;;;;18.20;62.11;100538.72;5213484;28;20037;-84
2023/07/21 05:32:18;;;;;;;0.80;0.80;;;;;;;18.20;62.95;100543.16;5199203;28;20043;-84
2023/07/21 05:35:10;;;;;;;3.20;1.13;;;;;;;18.19;65.13;100539.69;5204542;28;20032;-84
2023/07/21 05:38:01;;;;;;;2.88;1.35;;;;;;;18.02;66.71;100547.81;5207300;28;20013;-84
2023/07/21 05:40:57;;;;;;;1.80;1.35;;;;;;;17.65;69.67;100557.97;5187037;28;20032;-84
2023/07/21 05:43:48;;;;;;;0.68;0.68;;;;;;;17.40;71.46;100556.75;5185438;28;20032;-84
2023/07/21 05:46:38;;;;;;;10.93;2.40;;;;;;;17.72;68.59;100560.16;5201213;28;20036;-84
2023/07/21 05:49:30;;;;;;;1.52;1.27;;;;;;;17.89;67.12;100555.66;5200881;28;20029;-84
2023/07/21 05:52:21;;;;;;;1.17;1.10;;;;;;;18.03;65.32;100555.69;5200119;28;20047;-83
2023/07/21 05:55:11;;;;;;;0.90;0.88;;;;;;;17.82;67.31;100549.84;5217841;28;20560;-84
2023/07/21 05:58:02;;;;;;;8.50;1.55;;;;;;;17.87;66.16;100547.78;5184801;28;20082;-84
2023/07/21 06:00:54;;;;;;;1.20;1.10;;;;;;;17.54;70.87;100545.34;5202368;28;20551;-83
2023/07/21 06:03:45;;;;;;;1.88;1.73;;;;;;;17.58;70.15;100541.56;5184185;28;20036;-83
2023/07/21 06:06:35;;;;;;;1.52;1.45;;;;;;;17.80;67.99;100541.16;5187101;28;20040;-83
2023/07/21 06:09:26;;;;;;;8.27;2.72;;;;;;;17.93;66.66;100541.25;5217717;28;20533;-83
2023/07/21 06:12:17;;;;;;;0.90;0.90;;;;;;;17.97;66.32;100545.44;5185371;28;20031;-83
2023/07/21 06:15:08;;;;;;;0.60;0.60;;;;;;;18.02;66.65;100545.16;5185636;28;20037;-83
2023/07/21 06:17:59;;;;;;;22.15;1.50;;;;;;;17.90;67.55;100536.97;5204248;28;20040;-83
2023/07/21 06:20:53;;;;;;;2.35;1.85;;;;;;;17.74;70.10;100531.75;5218713;28;20516;-83
2023/07/21 06:23:45;;;;;;;0.88;0.85;;;;;;;17.82;69.20;100544.53;5197146;28;20049;-83
2023/07/21 06:26:36;;;;;;;1.23;1.15;;;;;;;17.51;71.16;100546.38;5186476;28;20428;-84
2023/07/21 06:29:26;;;;;;;1.70;1.33;;;;;;;17.85;67.23;100539.06;5201206;28;20072;-83
2023/07/21 06:32:17;;;;;;;1.00;0.98;;;;;;;18.00;67.15;100536.44;5201129;28;20025;-84
2023/07/21 06:35:09;;;;;;;1.17;1.08;;;;;;;17.92;67.55;100545.69;5199332;28;20044;-84
2023/07/21 06:38:01;;;;;;;2.42;2.05;;;;;;;18.05;66.45;100542.34;5214632;28;20036;-84
2023/07/21 06:40:51;;;;;;;1.08;1.00;;;;;;;17.92;69.22;100542.19;5200191;28;20029;-85
2023/07/21 06:43:42;;;;;;;1.23;0.98;;;;;;;17.93;68.42;100546.56;5189506;28;20025;-85
2023/07/21 06:46:33;;;;;;;1.38;1.27;;;;;;;17.98;68.17;100538.31;5206943;28;20398;-84
2023/07/21 06:49:24;;;;;;;3.38;2.20;;;;;;;18.06;67.68;100542.25;5195580;28;20040;-86
2023/07/21 06:52:15;;;;;;;1.73;1.63;;;;;;;18.16;67.14;100537.19;5216644;28;20451;-83
2023/07/21 06:55:06;;;;;;;0.98;0.85;;;;;;;18.11;68.44;100531.34;5194338;28;20033;-84
2023/07/21 06:57:57;;;;;;;5.13;1.83;;;;;;;17.98;69.74;100535.69;5186927;28;20017;-84
2023/07/21 07:00:47;;;;;;;2.28;1.90;;;;;;;18.11;67.66;100531.34;5186498;28;20041;-85
2023/07/21 07:03:38;;;;;;;1.27;1.13;;;;;;;17.88;70.38;100525.63;5184321;28;20550;-85
2023/07/21 07:06:29;;;;;;;2.17;1.73;;;;;;;17.85;70.01;100532.91;5204423;28;20075;-85
2023/07/21 07:09:20;;;;;;;1.95;1.73;;;;;;;17.84;69.82;100534.69;5192984;28;20028;-84
2023/07/21 07:12:12;;;;;;;1.40;1.25;;;;;;;18.01;68.80;100541.69;5211933;28;20099;-84
2023/07/21 07:15:04;;;;;;;2.70;1.35;;;;;;;18.14;67.58;100539.09;5207528;28;20651;-85
2023/07/21 07:17:55;;;;;;;2.10;1.73;;;;;;;18.16;67.95;100520.44;5210868;28;20028;-85
2023/07/21 07:20:50;;;;;;;2.83;2.28;;;;;;;18.16;67.53;100520.44;5226800;28;20044;-84
2023/07/21 07:23:40;;;;;;;2.70;1.88;;;;;;;18.19;67.18;100521.09;5225577;28;20112;-84
2023/07/21 07:26:33;;;;;;;8.48;1.67;;;;;;;17.98;67.91;100522.41;5210385;28;20040;-83
2023/07/21 07:29:23;;;;;;;6.78;1.02;;;;;;;18.17;66.96;100522.16;5194415;28;20058;-85
2023/07/21 07:32:17;;;;;;;1.00;1.00;;;;;;;18.28;65.95;100521.47;5184937;28;20044;-85
2023/07/21 07:35:10;;;;;;;2.72;1.92;;;;;;;18.21;67.18;100521.84;5193863;28;20033;-85
2023/07/21 07:38:00;;;;;;;0.52;0.52;;;;;;;18.27;67.42;100517.09;5205940;28;20021;-83
2023/07/21 07:40:51;;;;;;;0.75;0.75;;;;;;;18.33;66.65;100522.88;5190729;28;20029;-82
2023/07/21 07:43:42;;;;;;;1.77;1.15;;;;;;;18.45;65.27;100510.63;5202458;28;20021;-83
2023/07/21 07:46:33;;;;;;;0.80;0.80;;;;;;;18.56;65.26;100518.75;5190694;28;20160;-83
2023/07/21 07:49:24;;;;;;;4.68;1.50;;;;;;;18.51;66.61;100525.34;5203766;28;20033;-84
2023/07/21 07:52:17;;;;;;;1.35;1.27;;;;;;;18.48;66.39;100526.34;5190441;28;20025;-84
2023/07/21 07:55:09;;;;;;;0.93;0.93;;;;;;;18.69;65.64;100523.28;5189147;28;20033;-84
2023/07/21 07:58:00;;;;;;;0.90;0.90;;;;;;;18.62;65.76;100522.81;5194423;28;20116;-84
2023/07/21 08:00:55;;;;;;;1.23;1.13;;;;;;;18.76;65.08;100513.97;5189896;28;20040;-84
2023/07/21 08:03:45;;;;;;;1.48;1.38;;;;;;;18.65;64.98;100519.97;5189002;28;20094;-84
2023/07/21 08:06:36;;;;;;;0.98;0.93;;;;;;;18.80;64.84;100514.63;5205220;28;20108;-84
2023/07/21 08:09:27;;;;;;;3.50;1.98;;;;;;;18.74;64.59;100505.22;5208494;28;20481;-84
2023/07/21 08:12:18;;;;;;;2.95;2.35;;;;;;;18.90;64.16;100509.53;5211303;28;20048;-85
2023/07/21 08:15:09;;;;;;;1.10;1.10;;;;;;;18.80;64.86;100514.63;5190769;28;20949;-85
2023/07/21 08:18:00;;;;;;;0.55;0.55;;;;;;;18.75;63.79;100516.72;5206414;28;20457;-85
2023/07/21 08:20:51;;;;;;;1.02;0.95;;;;;;;18.86;63.57;100511.56;5207230;28;20040;-84
2023/07/21 08:23:42;;;;;;;0.70;0.70;;;;;;;18.79;62.94;100521.75;5225241;28;20101;-85
2023/07/21 08:26:33;;;;;;;2.13;0.77;;;;;;;18.91;62.72;100516.56;5220585;28;20032;-84
2023/07/21 08:29:23;;;;;;;0.50;0.50;;;;;;;19.00;61.21;100510.69;5214827;28;20033;-84
2023/07/21 08:32:14;;;;;;;2.25;1.52;;;;;;;18.95;61.95;100518.13;5191308;28;20039;-84
2023/07/21 08:35:05;;;;;;;0.40;0.40;;;;;;;18.99;62.17;100520.47;5188176;28;20029;-85
2023/07/21 08:37:56;;;;;;;1.77;0.85;;;;;;;19.19;61.67;100523.59;5202427;28;20085;-85
2023/07/21 08:40:53;;;;;;;1.60;1.50;;;;;;;19.02;60.89;100530.06;5202239;28;20056;-84
2023/07/21 08:43:45;;;;;;;0.40;0.40;;;;;;;18.77;60.89;100522.78;5198077;28;20021;-85
2023/07/21 08:46:36;;;;;;;0.63;0.63;;;;;;;18.80;60.57;100526.09;5207107;28;20036;-85
2023/07/21 08:49:27;;;;;;;0.82;0.82;;;;;;;18.97;60.92;100529.50;5228201;28;20033;-84
2023/07/21 08:52:18;;;;;;;0.93;0.90;;;;;;;18.98;60.16;100523.22;5189864;28;20089;-85
2023/07/21 08:55:09;;;;;;;0.50;0.50;;;;;;;19.03;59.36;100521.97;5205494;28;20037;-84
2023/07/21 08:58:00;;;;;;;1.05;1.05;;;;;;;19.12;59.85;100524.97;5203142;28;20102;-84
2023/07/21 09:00:52;;;;;;;2.13;0.70;;;;;;;19.17;59.14;100518.41;5196618;28;20033;-85
2023/07/21 09:03:45;;;;;;;1.23;0.55;;;;;;;19.07;58.75;100513.81;5199726;28;20051;-84
2023/07/21 09:06:40;;;;;;;0.50;0.50;;;;;;;19.11;59.51;100516.16;5203217;28;20677;-84
2023/07/21 09:09:31;;;;;;;1.00;1.00;;;;;;;19.23;59.04;100516.28;5188465;28;20033;-84
2023/07/21 09:12:22;;;;;;;0.60;0.60;;;;;;;19.27;58.46;100510.66;5188774;28;20032;-84
2023/07/21 09:15:13;;;;;;;1.85;1.27;;;;;;;19.35;57.44;100518.97;5197320;28;20119;-84
2023/07/21 09:18:04;;;;;;;0.30;0.30;;;;;;;19.41;57.97;100520.38;5189250;28;20028;-84
2023/07/21 09:20:56;;;;;;;0.40;0.40;;;;;;;19.43;57.51;100513.13;5203912;28;20070;-85
2023/07/21 09:23:48;;;;;;;0.98;0.63;;;;;;;19.43;55.76;100514.94;5203423;28;20097;-85
2023/07/21 09:26:38;;;;;;;1.05;0.85;;;;;;;19.38;56.39;100520.56;5193342;28;20187;-84
2023/07/21 09:29:29;;;;;;;0.65;0.65;;;;;;;19.43;56.69;100522.91;5221403;28;20136;-84
2023/07/21 09:32:21;;;;;;;0.70;0.70;;;;;;;19.44;58.09;100519.31;5208576;28;20040;-85
2023/07/21 09:35:12;;;;;;;1.02;0.50;;;;;;;19.57;57.16;100519.31;5195675;28;20496;-85
2023/07/21 09:38:03;;;;;;;0.43;0.43;;;;;;;19.46;55.82;100512.91;5194426;28;20037;-85
2023/07/21 09:41:03;;;;;;;1.05;0.95;;;;;;;19.54;56.53;100520.38;5206329;28;20509;-85
2023/07/21 09:43:55;;;;;;;2.50;0.90;;;;;;;19.42;55.13;100514.09;5218864;28;20041;-84
2023/07/21 09:46:47;;;;;;;0.70;0.70;;;;;;;19.55;55.18;100518.56;5196754;28;20021;-85
2023/07/21 09:49:38;;;;;;;0.93;0.93;;;;;;;19.65;55.12;100515.19;5192250;28;20036;-85
2023/07/21 09:52:37;;;;;;;18.10;1.58;;;;;;;19.61;54.96;100515.50;5211343;28;20041;-85
2023/07/21 09:55:35;;;;;;;0.47;0.47;;;;;;;19.73;56.04;100517.31;5198060;28;20057;-84
2023/07/21 09:58:29;;;;;;;0.30;0.30;;;;;;;19.88;55.97;100511.91;5188156;28;20021;-85
2023/07/21 10:01:20;;;;;;;0.32;0.32;;;;;;;19.80;55.61;100515.09;5201029;28;20036;-85
2023/07/21 10:04:11;;;;;;;0.90;0.88;;;;;;;19.94;55.36;100506.19;5208470;28;20052;-84
2023/07/21 10:07:05;;;;;;;2.15;0.80;;;;;;;19.89;53.85;100502.97;5201194;28;20035;-85
2023/07/21 10:09:56;;;;;;;0.82;0.82;;;;;;;20.04;53.86;100501.03;5202830;28;20029;-85
2023/07/21 10:12:50;;;;;;;0.40;0.40;;;;;;;20.08;52.59;100503.38;5220407;28;20033;-85
2023/07/21 10:15:46;;;;;;;1.75;1.48;;;;;;;20.10;53.20;100505.94;5190102;28;20017;-85
2023/07/21 10:18:59;;;;;;;1.67;1.30;;;;;;;20.23;53.94;100511.25;5180640;28;20138;-83
2023/07/21 10:21:52;;;;;;;0.45;0.45;;;;;;;20.13;52.39;100501.25;5218273;28;20542;-84
2023/07/21 10:24:48;;;;;;;5.95;0.90;;;;;;;20.12;51.05;100499.53;5188258;28;20147;-84
2023/07/21 10:27:38;;;;;;;0.20;0.20;;;;;;;20.29;51.89;100500.13;5203463;28;20025;-83
2023/07/21 10:30:29;;;;;;;1.75;1.20;;;;;;;20.20;52.44;100496.34;5206155;28;20025;-84
2023/07/21 10:33:29;;;;;;;0.40;0.40;;;;;;;20.34;52.17;100495.34;5214872;28;20116;-84
2023/07/21 10:36:19;;;;;;;0.47;0.47;;;;;;;20.22;51.79;100494.41;5202029;28;20037;-84
2023/07/21 10:39:12;;;;;;;0.57;0.57;;;;;;;20.26;51.66;100489.72;5186676;28;20066;-84
2023/07/21 10:42:04;;;;;;;0.57;0.57;;;;;;;20.40;50.34;100491.41;5220922;28;20037;-83
2023/07/21 10:44:55;;;;;;;0.82;0.82;;;;;;;20.48;50.34;100490.81;5190301;28;20033;-83
2023/07/21 10:47:46;;;;;;;0.30;0.30;;;;;;;20.53;49.76;100480.69;5209062;28;20464;-84
2023/07/21 10:50:54;;;;;;;0.20;0.20;;;;;;;20.56;49.92;100476.00;5203413;28;20052;-84
2023/07/21 10:53:45;;;;;;;0.45;0.32;;;;;;;20.69;50.90;100480.41;5205440;28;20467;-84
2023/07/21 10:56:46;;;;;;;0.30;0.30;;;;;;;20.80;50.16;100476.97;5207513;28;20072;-84
2023/07/21 10:59:37;;;;;;;0.60;0.60;;;;;;;20.84;49.74;100483.81;5198703;28;20036;-84
2023/07/21 11:02:28;;;;;;;0.30;0.30;;;;;;;20.84;49.79;100468.63;5221813;28;20025;-83
2023/07/21 11:05:19;;;;;;;0.50;0.50;;;;;;;20.88;50.06;100463.94;5193663;28;20037;-83
2023/07/21 11:08:28;;;;;;;0.28;0.28;;;;;;;20.88;48.57;100470.13;5222130;28;20033;-83
2023/07/21 11:11:20;;;;;;;0.75;0.75;;;;;;;20.96;49.43;100463.38;5188428;28;20033;-85
2023/07/21 11:14:16;;;;;;;0.90;0.90;;;;;;;20.98;49.56;100461.44;5215696;28;20115;-85
2023/07/21 11:17:07;;;;;;;0.50;0.50;;;;;;;20.94;50.00;100468.81;5199350;28;20029;-83
2023/07/21 11:20:05;;;;;;;0.43;0.43;;;;;;;20.94;48.29;100458.16;5191543;28;20048;-84
2023/07/21 11:22:58;;;;;;;0.30;0.30;;;;;;;21.02;48.13;100460.22;5198287;28;20160;-84
2023/07/21 11:26:11;;;;;;;1.17;0.55;;;;;;;21.01;48.44;100462.06;5205009;28;20033;-84
2023/07/21 11:29:06;;;;;;;0.40;0.40;;;;;;;21.01;47.45;100458.53;5188372;28;20500;-85
2023/07/21 11:31:58;;;;;;;0.30;0.30;;;;;;;21.02;47.22;100461.09;5190951;28;20028;-85
2023/07/21 11:34:56;;;;;;;0.70;0.70;;;;;;;21.16;47.90;100451.19;5207550;28;20116;-85
2023/07/21 11:37:47;;;;;;;0.45;0.45;;;;;;;21.09;48.19;100457.97;5216283;28;20025;-84
2023/07/21 11:40:38;;;;;;;0.30;0.30;;;;;;;21.39;48.16;100452.94;5229847;28;20108;-85
2023/07/21 11:43:29;;;;;;;0.50;0.50;;;;;;;21.54;46.95;100447.38;5219308;28;20081;-85
2023/07/21 11:46:23;;;;;;;0.40;0.40;;;;;;;21.69;46.54;100438.19;5240191;28;20521;-86
2023/07/21 11:49:14;;;;;;;0.45;0.45;;;;;;;21.82;46.45;100439.91;5219859;28;20609;-85
2023/07/21 11:52:05;;;;;;;2.45;0.98;;;;;;;21.99;46.35;100443.91;5207799;28;20025;-84
2023/07/21 11:54:57;;;;;;;0.60;0.60;;;;;;;21.85;45.58;100442.34;5220262;28;20092;-85
2023/07/21 11:57:48;;;;;;;0.50;0.50;;;;;;;21.92;45.00;100443.56;5219570;28;20045;-85
2023/07/21 12:00:39;;;;;;;0.45;0.45;;;;;;;22.06;45.14;100441.59;5200599;28;20393;-84
2023/07/21 12:03:30;;;;;;;0.50;0.47;;;;;;;22.14;43.41;100447.16;5212055;28;20484;-84
2023/07/21 12:06:21;;;;;;;0.40;0.40;;;;;;;22.39;43.75;100440.72;5224337;28;20045;-84
2023/07/21 12:09:12;;;;;;;0.43;0.43;;;;;;;22.44;44.14;100437.66;5206356;28;20592;-84
2023/07/21 12:12:05;;;;;;;0.40;0.40;;;;;;;22.59;43.54;100436.41;5188213;28;20028;-85
2023/07/21 12:14:55;;;;;;;0.20;0.20;;;;;;;22.49;44.33;100448.84;5215024;28;20132;-85
2023/07/21 12:17:48;;;;;;;0.40;0.40;;;;;;;22.59;42.37;100446.25;5209426;28;20298;-86
2023/07/21 12:20:39;;;;;;;0.25;0.25;;;;;;;22.71;42.41;100439.03;5209541;28;20044;-84
2023/07/21 12:23:30;;;;;;;0.80;0.60;;;;;;;22.96;41.16;100445.88;5197892;28;20033;-85
2023/07/21 12:26:24;;;;;;;0.50;0.50;;;;;;;22.55;41.60;100444.81;5203977;28;20039;-85
2023/07/21 12:29:16;;;;;;;0.45;0.45;;;;;;;22.79;40.91;100436.56;5205750;28;20047;-85
2023/07/21 12:32:07;;;;;;;0.93;0.68;;;;;;;23.10;41.33;100437.53;5213996;28;20811;-85
2023/07/21 12:34:58;;;;;;;0.70;0.70;;;;;;;23.16;39.58;100430.81;5192971;28;20285;-85
2023/07/21 12:37:49;;;;;;;2.92;0.68;;;;;;;23.11;41.64;100435.69;5193976;28;20036;-85
2023/07/21 12:40:40;;;;;;;0.50;0.50;;;;;;;23.06;40.58;100432.56;5197995;28;20056;-83
2023/07/21 12:43:31;;;;;;;0.45;0.45;;;;;;;23.35;41.18;100429.25;5201508;28;20071;-84
2023/07/21 12:46:22;;;;;;;0.32;0.32;;;;;;;23.38;39.96;100439.69;5194054;28;20033;-84
2023/07/21 12:49:13;;;;;;;0.93;0.43;;;;;;;22.92;40.46;100425.69;5195553;28;20043;-84
2023/07/21 12:52:04;;;;;;;0.40;0.40;;;;;;;22.93;40.40;100430.06;5213403;28;20029;-85
2023/07/21 12:54:55;;;;;;;0.95;0.90;;;;;;;23.17;39.37;100440.53;5226005;28;20104;-85
2023/07/21 12:57:46;;;;;;;4.10;1.95;;;;;;;22.97;43.21;100457.41;5243229;28;20033;-85
2023/07/21 13:00:37;;;;;;;0.50;0.50;;;;;;;22.37;45.41;100485.41;5215023;28;20039;-86
2023/07/21 13:03:27;;;;;;;0.68;0.68;;;;;;;22.08;45.96;100487.75;5215974;28;20016;-85
2023/07/21 13:06:18;;;;;;;0.70;0.70;;;;;;;21.99;46.76;100498.19;5206245;28;20056;-84
2023/07/21 13:09:09;;;;;;;0.57;0.57;;;;;;;21.81;47.77;100510.31;5206258;28;20775;-85
2023/07/21 13:12:00;;;;;;;0.20;0.20;;;;;;;21.22;48.90;100523.63;5199020;28;20125;-84
2023/07/21 13:14:50;;;;;;;0.30;0.30;;;;;;;21.06;48.89;100526.56;5205700;28;20377;-85
2023/07/21 13:17:41;;;;;;;0.30;0.30;;;;;;;21.11;48.72;100528.06;5203739;28;20033;-85